Time;durP1;ratioP1;P1;durP2;ratioP2;P2;SDS_P1;SDS_P2;PMS_P1;PMS_P2;Temp;Humidity;BMP_temperature;BMP_pressure;BME280_temperature;BME280_humidity;BME280_pressure;Samples;Min_cycle;Max_cycle;Signal;HPM_P1;HPM_P2
2023/10/06 00:00:47;;;;;;;5.57;2.10;;;;;;;13.82;88.77;102382.22;7397212;19;19919;-72
2023/10/06 00:03:16;;;;;;;7.35;2.25;;;;;;;13.81;88.85;102383.22;7400453;19;19926;-73
2023/10/06 00:05:48;;;;;;;10.35;2.58;;;;;;;13.82;88.89;102376.81;7398983;19;19966;-72
2023/10/06 00:08:18;;;;;;;5.10;2.17;;;;;;;13.81;88.73;102375.09;7401028;19;19929;-73
2023/10/06 00:10:51;;;;;;;9.18;2.47;;;;;;;13.80;88.99;102382.41;7397566;19;20349;-73
2023/10/06 00:13:28;;;;;;;5.10;2.13;;;;;;;13.78;88.66;102379.00;7399344;19;19926;-73
2023/10/06 00:15:58;;;;;;;5.45;2.05;;;;;;;13.79;88.89;102385.25;7398980;19;19923;-73
2023/10/06 00:18:27;;;;;;;6.70;2.20;;;;;;;13.78;88.71;102381.69;7397648;19;19978;-72
2023/10/06 00:21:04;;;;;;;4.68;2.25;;;;;;;13.76;88.54;102385.59;7399744;19;19922;-73
2023/10/06 00:23:38;;;;;;;6.18;2.50;;;;;;;13.75;88.63;102398.28;7401172;19;20320;-74
2023/10/06 00:26:16;;;;;;;4.10;1.80;;;;;;;13.74;88.63;102376.75;7400259;19;19935;-72
2023/10/06 00:28:47;;;;;;;;;;;;;;;13.60;88.83;102370.94;7404417;19;19915;-72
2023/10/06 00:31:16;;;;;;;6.50;2.60;;;;;;;13.69;88.76;102369.13;7402396;19;19923;-73
2023/10/06 00:33:45;;;;;;;6.20;2.55;;;;;;;13.69;89.04;102371.84;7400838;19;19959;-72
2023/10/06 00:36:17;;;;;;;9.50;2.97;;;;;;;13.68;89.30;102370.13;7398231;19;19940;-72
2023/10/06 00:38:50;;;;;;;6.88;2.78;;;;;;;13.67;89.05;102379.28;7399357;19;19944;-73
2023/10/06 00:41:20;;;;;;;5.85;2.65;;;;;;;13.66;89.07;102374.03;7397804;19;19926;-72
2023/10/06 00:43:54;;;;;;;8.80;2.83;;;;;;;13.64;88.97;102372.31;7399215;19;19926;-72
2023/10/06 00:46:23;;;;;;;7.78;2.50;;;;;;;13.62;89.14;102368.94;7397084;19;19924;-73
2023/10/06 00:48:56;;;;;;;5.53;2.55;;;;;;;13.62;89.52;102358.09;7396952;19;19929;-73
2023/10/06 00:51:27;;;;;;;9.65;2.90;;;;;;;13.60;89.22;102360.09;7397781;19;19929;-73
2023/10/06 00:53:58;;;;;;;8.27;2.78;;;;;;;13.58;89.45;102366.69;7397971;19;20004;-72
2023/10/06 00:56:28;;;;;;;6.25;2.42;;;;;;;13.54;89.55;102371.59;7397232;19;20362;-72
2023/10/06 00:59:03;;;;;;;7.35;2.42;;;;;;;13.53;89.47;102366.31;7396709;19;19922;-73
2023/10/06 01:01:34;;;;;;;7.70;2.72;;;;;;;13.52;89.73;102367.31;7396220;19;19923;-72
2023/10/06 01:04:08;;;;;;;8.00;2.42;;;;;;;13.51;89.63;102355.66;7397151;19;19926;-72
2023/10/06 01:06:38;;;;;;;8.63;2.75;;;;;;;13.50;89.97;102361.25;7397559;19;19926;-72
2023/10/06 01:09:14;;;;;;;9.32;3.20;;;;;;;13.49;90.10;102346.84;7398222;19;19930;-73
2023/10/06 01:11:44;;;;;;;9.18;2.97;;;;;;;13.47;90.13;102346.16;7398696;19;19911;-73
2023/10/06 01:14:21;;;;;;;6.60;2.35;;;;;;;13.46;90.44;102332.78;7397775;19;19953;-72
2023/10/06 01:16:50;;;;;;;4.78;2.42;;;;;;;13.44;90.49;102327.53;7393753;19;20345;-72
2023/10/06 01:19:26;;;;;;;7.05;3.30;;;;;;;13.43;90.31;102314.13;7396217;19;19960;-73
2023/10/06 01:21:55;;;;;;;8.02;2.83;;;;;;;13.43;90.34;102308.72;7396796;19;19926;-72
2023/10/06 01:24:28;;;;;;;9.85;2.55;;;;;;;13.42;90.53;102301.59;7396697;19;20272;-72
2023/10/06 01:27:05;;;;;;;6.65;2.90;;;;;;;13.41;90.47;102306.19;7395986;19;19974;-72
2023/10/06 01:29:34;;;;;;;7.47;2.95;;;;;;;13.40;90.53;102299.09;7394941;19;19914;-73
2023/10/06 01:32:06;;;;;;;6.45;2.83;;;;;;;13.41;90.28;102303.50;7395115;19;19956;-73
2023/10/06 01:34:38;;;;;;;7.82;3.70;;;;;;;13.39;90.60;102308.19;7396792;19;19969;-72
2023/10/06 01:37:07;;;;;;;9.35;3.10;;;;;;;13.40;90.58;102299.09;7395525;19;20322;-72
2023/10/06 01:39:39;;;;;;;9.82;3.58;;;;;;;13.41;90.55;102308.06;7395968;19;19922;-72
2023/10/06 01:42:16;;;;;;;7.20;3.45;;;;;;;13.43;90.43;102312.28;7396990;19;19923;-72
2023/10/06 01:44:45;;;;;;;7.55;3.00;;;;;;;13.43;90.64;102304.16;7395638;19;20265;-72
2023/10/06 01:47:18;;;;;;;11.38;4.03;;;;;;;13.44;90.22;102292.34;7393605;19;19926;-72
2023/10/06 01:49:47;;;;;;;9.68;3.80;;;;;;;13.44;90.38;102289.63;7395477;19;19922;-72
2023/10/06 01:52:19;;;;;;;7.35;3.05;;;;;;;13.44;90.58;102286.91;7396117;19;19958;-72
2023/10/06 01:54:51;;;;;;;8.60;3.30;;;;;;;13.44;90.71;102292.34;7397122;19;20356;-72
2023/10/06 01:57:19;;;;;;;11.85;4.63;;;;;;;13.47;90.44;102293.84;7394620;19;20002;-72
2023/10/06 01:59:49;;;;;;;7.65;3.60;;;;;;;13.47;90.54;102288.44;7394554;19;19923;-72
2023/10/06 02:02:23;;;;;;;11.27;3.70;;;;;;;13.48;90.75;102282.88;7399540;19;20002;-72
2023/10/06 02:04:56;;;;;;;9.40;4.10;;;;;;;13.50;90.62;102280.84;7402318;19;19938;-72
2023/10/06 02:07:25;;;;;;;14.60;4.43;;;;;;;13.50;90.41;102275.41;7400575;19;19972;-72
2023/10/06 02:09:56;;;;;;;7.85;3.67;;;;;;;13.51;90.75;102268.16;7402136;19;20374;-73
2023/10/06 02:12:25;;;;;;;8.38;4.22;;;;;;;13.52;90.38;102270.72;7400339;19;19922;-73
2023/10/06 02:14:53;;;;;;;9.93;4.25;;;;;;;13.51;90.72;102274.41;7401461;19;19956;-73
2023/10/06 02:17:22;;;;;;;8.40;4.15;;;;;;;13.53;90.51;102261.59;7400378;19;19918;-73
2023/10/06 02:19:51;;;;;;;10.57;3.72;;;;;;;13.54;90.40;102257.88;7403237;19;19922;-72
2023/10/06 02:22:20;;;;;;;7.18;4.13;;;;;;;13.56;90.23;102261.25;7399355;19;19922;-72
2023/10/06 02:24:48;;;;;;;8.00;3.97;;;;;;;13.57;90.29;102271.06;7398836;19;20020;-73
2023/10/06 02:27:19;;;;;;;14.73;4.65;;;;;;;13.58;90.32;102250.25;7401073;19;19918;-72
2023/10/06 02:29:49;;;;;;;10.13;3.83;;;;;;;13.58;90.51;102256.53;7402484;19;19919;-72
2023/10/06 02:32:18;;;;;;;8.13;3.78;;;;;;;13.59;90.59;102250.09;7398720;19;19937;-73
2023/10/06 02:34:48;;;;;;;8.20;3.90;;;;;;;13.59;90.71;102255.50;7400728;19;19922;-73
2023/10/06 02:37:22;;;;;;;10.30;4.13;;;;;;;13.60;90.52;102256.34;7401329;19;19948;-73
2023/10/06 02:39:51;;;;;;;13.20;4.72;;;;;;;13.62;90.52;102260.63;7401044;19;19970;-72
2023/10/06 02:42:22;;;;;;;10.20;4.40;;;;;;;13.62;90.14;102247.06;7398714;19;19946;-73
2023/10/06 02:44:51;;;;;;;9.10;4.47;;;;;;;13.63;90.71;102251.44;7400710;19;19943;-73
2023/10/06 02:47:21;;;;;;;8.68;4.20;;;;;;;13.64;90.39;102255.00;7399904;19;19922;-73
2023/10/06 02:49:59;;;;;;;8.88;4.32;;;;;;;13.63;90.50;102246.03;7400887;19;20568;-73
2023/10/06 02:52:36;;;;;;;11.40;3.90;;;;;;;13.64;90.34;102245.03;7396189;19;19956;-73
2023/10/06 02:55:08;;;;;;;8.65;3.95;;;;;;;13.64;90.36;102236.91;7402335;19;19948;-73
2023/10/06 02:57:43;;;;;;;10.00;4.90;;;;;;;13.63;90.62;102232.50;7401561;19;19935;-73
2023/10/06 03:02:55;;;;;;;9.50;4.15;;;;;;;13.64;90.53;102223.38;7399821;19;19926;-73
2023/10/06 03:05:31;;;;;;;11.38;4.47;;;;;;;13.63;90.42;102227.09;7401170;19;19926;-72
2023/10/06 03:08:00;;;;;;;11.55;4.20;;;;;;;13.63;90.61;102226.25;7399917;19;20005;-73
2023/10/06 03:10:35;;;;;;;8.45;3.90;;;;;;;13.61;90.74;102230.97;7398790;19;20299;-73
2023/10/06 03:13:08;;;;;;;6.43;3.92;;;;;;;13.58;90.45;102221.34;7398516;19;19925;-73
2023/10/06 03:15:45;;;;;;;10.80;4.32;;;;;;;13.58;90.80;102213.22;7395822;19;20269;-73
2023/10/06 03:18:15;;;;;;;8.25;3.95;;;;;;;13.57;90.67;102218.78;7396479;19;19933;-73
2023/10/06 03:20:46;;;;;;;10.38;4.50;;;;;;;13.57;90.75;102216.06;7399847;19;19974;-73
2023/10/06 03:26:03;;;;;;;11.15;4.22;;;;;;;13.53;91.02;102223.69;7400125;19;19922;-73
2023/10/06 03:28:36;;;;;;;10.23;4.57;;;;;;;13.55;90.70;102218.06;7400911;19;19922;-73
2023/10/06 03:31:21;;;;;;;9.32;4.20;;;;;;;13.54;90.86;102206.44;7399782;19;19926;-73
2023/10/06 03:33:52;;;;;;;9.48;4.35;;;;;;;13.54;90.79;102198.31;7399597;19;19990;-73
2023/10/06 03:36:27;;;;;;;8.77;4.15;;;;;;;13.53;90.92;102179.50;7396347;19;20254;-73
2023/10/06 03:38:56;;;;;;;9.20;4.72;;;;;;;13.51;90.94;102184.22;7399249;19;20014;-73
2023/10/06 03:41:31;;;;;;;8.77;4.25;;;;;;;13.50;90.71;102187.97;7399439;19;20234;-73
2023/10/06 03:44:04;;;;;;;9.55;3.80;;;;;;;13.48;91.19;102201.66;7400425;19;19930;-73
2023/10/06 03:46:38;;;;;;;11.43;4.78;;;;;;;13.49;91.15;102189.81;7398042;19;19931;-73
2023/10/06 03:49:07;;;;;;;9.93;4.63;;;;;;;13.47;91.02;102193.69;7400131;19;19924;-72
2023/10/06 03:51:38;;;;;;;11.52;4.53;;;;;;;13.46;91.08;102211.78;7397473;19;19923;-73
2023/10/06 03:54:07;;;;;;;9.82;4.25;;;;;;;13.44;91.14;102192.16;7400841;19;20028;-73
2023/10/06 03:56:36;;;;;;;13.98;4.43;;;;;;;13.45;91.25;102188.47;7399042;19;19990;-72
2023/10/06 03:59:12;;;;;;;10.13;4.47;;;;;;;13.45;91.59;102176.78;7401719;19;19951;-73
2023/10/06 04:01:44;;;;;;;9.30;4.80;;;;;;;13.44;91.41;102175.06;7397778;19;19923;-72
2023/10/06 04:04:14;;;;;;;10.45;4.45;;;;;;;13.43;91.66;102176.06;7399306;19;19914;-72
2023/10/06 04:06:44;;;;;;;14.02;4.85;;;;;;;13.42;91.57;102185.19;7398878;19;19926;-73
2023/10/06 04:09:19;;;;;;;15.82;5.25;;;;;;;13.41;91.86;102188.94;7399308;19;19990;-73
2023/10/06 04:11:47;;;;;;;9.65;5.05;;;;;;;13.41;91.84;102178.97;7397946;19;19923;-73
2023/10/06 04:14:20;;;;;;;12.73;5.38;;;;;;;13.40;92.02;102190.81;7399514;19;19955;-73
2023/10/06 04:16:50;;;;;;;15.52;5.47;;;;;;;13.40;91.95;102185.38;7396210;19;19915;-72
2023/10/06 04:19:19;;;;;;;12.80;4.82;;;;;;;13.40;92.14;102196.22;7399686;19;19925;-73
2023/10/06 04:21:48;;;;;;;10.90;4.60;;;;;;;13.40;91.92;102190.81;7394335;19;19918;-72
2023/10/06 04:24:18;;;;;;;12.80;4.50;;;;;;;13.40;92.30;102189.94;7399206;19;20256;-72
2023/10/06 04:26:47;;;;;;;11.02;5.13;;;;;;;13.40;92.03;102181.81;7400798;19;19949;-73
2023/10/06 04:29:15;;;;;;;9.57;4.97;;;;;;;13.40;92.15;102189.94;7400504;19;19944;-73
2023/10/06 04:31:47;;;;;;;12.05;4.75;;;;;;;13.39;92.42;102183.69;7399934;19;19922;-73
2023/10/06 04:34:16;;;;;;;12.52;4.90;;;;;;;13.39;92.22;102190.94;7399970;19;19915;-72
2023/10/06 04:36:48;;;;;;;10.43;4.75;;;;;;;13.39;92.34;102188.25;7396684;19;19918;-73
2023/10/06 04:39:19;;;;;;;14.38;5.43;;;;;;;13.39;92.17;102166.59;7399119;19;19922;-73
2023/10/06 04:41:48;;;;;;;10.05;5.03;;;;;;;13.39;92.28;102167.44;7399998;19;20357;-72
2023/10/06 04:44:17;;;;;;;12.38;5.28;;;;;;;13.39;92.09;102175.56;7399628;19;19922;-72
2023/10/06 04:46:50;;;;;;;11.77;4.55;;;;;;;13.38;92.48;102159.47;7397448;19;19915;-73
2023/10/06 04:49:18;;;;;;;11.80;4.65;;;;;;;13.36;92.63;102151.53;7399606;19;19934;-73
2023/10/06 04:51:48;;;;;;;13.52;5.00;;;;;;;13.36;92.55;102156.94;7396963;19;20261;-73
2023/10/06 04:54:17;;;;;;;13.35;6.25;;;;;;;13.34;92.77;102155.41;7399413;19;19927;-73
2023/10/06 04:56:45;;;;;;;9.93;4.78;;;;;;;13.33;92.75;102162.66;7397845;19;19914;-72
2023/10/06 04:59:14;;;;;;;13.20;5.22;;;;;;;13.32;93.15;102150.16;7397761;19;19922;-73
2023/10/06 05:01:45;;;;;;;10.45;4.72;;;;;;;13.31;93.21;102144.91;7397329;19;19936;-73
2023/10/06 05:04:16;;;;;;;8.60;4.30;;;;;;;13.30;93.40;102160.31;7399322;19;19919;-72
2023/10/06 05:06:45;;;;;;;13.90;4.85;;;;;;;13.28;93.35;102137.97;7397610;19;20324;-72
2023/10/06 05:09:13;;;;;;;12.52;5.18;;;;;;;13.26;93.38;102142.69;7398502;19;19911;-73
2023/10/06 05:11:43;;;;;;;10.07;4.20;;;;;;;13.25;92.98;102138.28;7398224;19;19918;-72
2023/10/06 05:14:12;;;;;;;11.75;6.13;;;;;;;13.26;93.17;102141.84;7395842;19;19922;-73
2023/10/06 05:16:40;;;;;;;10.00;4.35;;;;;;;13.27;93.40;102130.00;7396620;19;20067;-73
2023/10/06 05:19:09;;;;;;;7.97;4.45;;;;;;;13.25;93.16;102124.75;7397253;19;19926;-73
2023/10/06 05:21:40;;;;;;;11.63;5.00;;;;;;;13.25;93.08;102138.28;7399001;19;19923;-73
2023/10/06 05:24:10;;;;;;;12.50;5.00;;;;;;;13.24;92.76;102131.22;7396687;19;19948;-73
2023/10/06 05:26:39;;;;;;;12.82;4.43;;;;;;;13.25;92.89;102126.59;7399023;19;19922;-72
2023/10/06 05:29:09;;;;;;;7.88;3.85;;;;;;;13.25;92.65;102138.28;7398475;19;19930;-73
2023/10/06 05:31:37;;;;;;;9.00;4.53;;;;;;;13.24;92.83;102130.34;7396248;19;20288;-72
2023/10/06 05:34:07;;;;;;;10.48;4.07;;;;;;;13.23;92.79;102134.91;7395315;19;19926;-73
2023/10/06 05:36:35;;;;;;;10.30;4.40;;;;;;;13.24;92.95;102127.66;7397144;19;19922;-73
2023/10/06 05:39:11;;;;;;;11.63;4.43;;;;;;;13.22;92.71;102133.22;7402576;19;19921;-72
2023/10/06 05:41:40;;;;;;;11.30;4.80;;;;;;;13.20;92.83;102127.13;7398756;19;19918;-73
2023/10/06 05:44:09;;;;;;;7.78;3.28;;;;;;;13.20;92.68;102127.13;7403899;19;19925;-72
2023/10/06 05:46:38;;;;;;;8.07;4.40;;;;;;;13.20;92.95;102124.44;7402543;19;19927;-73
2023/10/06 05:49:08;;;;;;;8.38;4.65;;;;;;;13.17;93.11;102127.44;7400184;19;19925;-73
2023/10/06 05:51:38;;;;;;;9.88;4.05;;;;;;;13.17;92.76;102130.13;7403387;19;19926;-73
2023/10/06 05:54:18;;;;;;;11.73;4.20;;;;;;;13.17;92.90;102138.25;7403525;19;20588;-72
2023/10/06 05:56:47;;;;;;;11.40;4.05;;;;;;;13.16;92.76;102133.84;7401349;19;20273;-73
2023/10/06 05:59:18;;;;;;;10.25;4.65;;;;;;;13.16;92.74;102131.16;7399901;19;19922;-72
2023/10/06 06:01:55;;;;;;;9.68;4.30;;;;;;;13.16;92.99;102120.31;7395020;19;20451;-72
2023/10/06 06:04:27;;;;;;;7.72;4.22;;;;;;;13.14;92.90;102125.06;7394429;19;19929;-71
2023/10/06 06:07:02;;;;;;;7.57;3.90;;;;;;;13.12;92.98;102132.47;7402205;19;19982;-71
2023/10/06 06:09:34;;;;;;;11.25;4.90;;;;;;;13.11;93.03;102130.81;7399780;19;19926;-72
2023/10/06 06:12:03;;;;;;;;;;;;;;;13.02;94.01;102131.75;7404780;19;19943;-72
2023/10/06 06:14:34;;;;;;;7.72;3.78;;;;;;;13.09;93.15;102138.19;7403892;19;19953;-72
2023/10/06 06:17:02;;;;;;;8.93;4.20;;;;;;;13.10;93.09;102124.56;7400803;19;19970;-71
2023/10/06 06:19:32;;;;;;;10.20;4.35;;;;;;;13.13;93.15;102140.44;7399840;19;19927;-72
2023/10/06 06:22:05;;;;;;;10.52;4.30;;;;;;;13.14;92.95;102131.34;7397169;19;19919;-73
2023/10/06 06:24:38;;;;;;;11.85;4.82;;;;;;;13.15;92.86;102122.22;7390106;19;20371;-72
2023/10/06 06:27:06;;;;;;;7.72;4.53;;;;;;;13.17;92.72;102122.03;7394991;19;19948;-73
2023/10/06 06:29:35;;;;;;;16.20;4.65;;;;;;;13.18;93.06;102129.13;7401655;19;19927;-72
2023/10/06 06:32:12;;;;;;;12.05;4.13;;;;;;;13.19;92.80;102120.03;7383109;19;19918;-72
2023/10/06 06:34:41;;;;;;;9.18;4.15;;;;;;;13.21;92.75;102119.84;7403264;19;19922;-72
2023/10/06 06:37:12;;;;;;;12.15;4.68;;;;;;;13.22;93.00;102111.56;7401875;19;19926;-72
2023/10/06 06:39:45;;;;;;;13.02;4.75;;;;;;;13.21;93.25;102128.81;7403427;19;20348;-72
2023/10/06 06:42:13;;;;;;;9.93;3.50;;;;;;;13.22;92.85;102114.28;7403008;19;19942;-72
2023/10/06 06:44:47;;;;;;;12.23;4.18;;;;;;;13.23;92.86;102113.25;7402738;19;19918;-72
2023/10/06 06:47:18;;;;;;;17.52;6.20;;;;;;;13.25;92.78;102113.94;7399133;19;20348;-72
2023/10/06 06:49:48;;;;;;;11.13;5.15;;;;;;;13.27;93.03;102111.06;7398214;19;20268;-72
2023/10/06 06:52:17;;;;;;;7.82;4.20;;;;;;;13.29;93.06;102101.75;7401451;19;20249;-72
2023/10/06 06:54:53;;;;;;;13.50;4.65;;;;;;;13.31;92.93;102109.72;7402312;19;19974;-71
2023/10/06 06:57:22;;;;;;;11.68;4.47;;;;;;;13.32;92.89;102096.03;7400053;19;19926;-72
2023/10/06 06:59:51;;;;;;;8.98;3.65;;;;;;;13.34;92.54;102104.81;7402473;19;19922;-71
2023/10/06 07:02:20;;;;;;;7.80;3.63;;;;;;;13.36;92.84;102101.97;7401018;19;19926;-72
2023/10/06 07:04:48;;;;;;;9.60;4.38;;;;;;;13.39;92.66;102113.31;7402948;19;20006;-71
2023/10/06 07:07:17;;;;;;;9.18;4.07;;;;;;;13.41;92.94;102115.84;7400118;19;19938;-71
2023/10/06 07:09:46;;;;;;;9.00;3.70;;;;;;;13.43;92.81;102120.09;7403127;19;20290;-72
2023/10/06 07:12:18;;;;;;;10.68;4.63;;;;;;;13.42;93.13;102117.53;7401959;19;20279;-72
2023/10/06 07:14:46;;;;;;;;;;;;;;;13.32;94.35;102128.53;7402596;19;20006;-72
2023/10/06 07:17:15;;;;;;;12.95;4.45;;;;;;;13.40;93.54;102133.97;7400986;19;19911;-71
2023/10/06 07:19:43;;;;;;;14.63;4.28;;;;;;;13.42;93.74;102131.91;7402081;19;20346;-72
2023/10/06 07:22:12;;;;;;;10.70;4.50;;;;;;;13.47;93.44;102129.56;7401644;19;19919;-72
2023/10/06 07:24:40;;;;;;;8.40;4.63;;;;;;;13.53;93.50;102130.78;7401227;19;20363;-72
2023/10/06 07:27:09;;;;;;;10.55;4.20;;;;;;;13.58;93.20;102141.97;7399931;19;19922;-71
2023/10/06 07:29:40;;;;;;;10.60;4.40;;;;;;;13.66;92.76;102127.59;7401860;19;19925;-72
2023/10/06 07:32:10;;;;;;;12.23;4.45;;;;;;;13.72;92.85;102126.94;7400851;19;19922;-72
2023/10/06 07:34:39;;;;;;;11.52;4.25;;;;;;;13.78;92.58;102127.09;7401909;19;19915;-72
2023/10/06 07:37:07;;;;;;;13.95;4.10;;;;;;;13.84;92.42;102125.59;7401092;19;19919;-72
2023/10/06 07:39:36;;;;;;;11.35;4.38;;;;;;;13.92;92.25;102125.59;7399906;19;20353;-71
2023/10/06 07:42:06;;;;;;;9.88;4.00;;;;;;;13.99;91.95;102126.59;7399149;19;19926;-72
2023/10/06 07:44:35;;;;;;;10.38;4.28;;;;;;;14.06;91.81;102112.19;7401280;19;19922;-72
2023/10/06 07:47:07;;;;;;;6.68;4.18;;;;;;;14.14;91.24;102132.19;7400699;19;20336;-72
2023/10/06 07:49:36;;;;;;;10.07;4.15;;;;;;;14.21;91.36;102131.34;7400038;19;19911;-72
2023/10/06 07:52:07;;;;;;;9.73;5.13;;;;;;;14.28;90.87;102135.06;7401182;19;19925;-73
2023/10/06 07:54:36;;;;;;;6.55;3.90;;;;;;;14.34;90.94;102142.53;7399901;19;19928;-72
2023/10/06 07:57:05;;;;;;;8.30;4.03;;;;;;;14.41;90.77;102127.28;7397452;19;19945;-71
2023/10/06 07:59:36;;;;;;;6.07;4.07;;;;;;;14.46;90.52;102141.19;7399567;19;19926;-72
2023/10/06 08:02:07;;;;;;;13.30;4.68;;;;;;;14.56;90.08;102129.31;7400590;19;19940;-72
2023/10/06 08:04:36;;;;;;;13.98;4.90;;;;;;;14.61;90.06;102138.63;7400590;19;19925;-72
2023/10/06 08:07:05;;;;;;;10.02;4.68;;;;;;;14.64;90.17;102132.84;7398945;19;19922;-72
2023/10/06 08:09:35;;;;;;;14.20;4.72;;;;;;;14.65;89.90;102161.66;7400737;19;19932;-72
2023/10/06 08:12:08;;;;;;;15.57;5.55;;;;;;;14.65;90.37;102133.69;7400571;19;19919;-72
2023/10/06 08:14:37;;;;;;;10.13;4.22;;;;;;;14.66;90.09;102119.97;7399571;19;19914;-71
2023/10/06 08:17:09;;;;;;;14.02;5.38;;;;;;;14.66;90.41;102125.41;7394700;19;19922;-72
2023/10/06 08:19:38;;;;;;;14.52;6.22;;;;;;;14.65;90.74;102129.13;7395984;19;19950;-73
2023/10/06 08:22:07;;;;;;;11.00;5.28;;;;;;;14.64;90.97;102138.28;7400572;19;19926;-72
2023/10/06 08:24:35;;;;;;;17.38;8.18;;;;;;;14.66;91.17;102138.13;7400420;19;19932;-72
2023/10/06 08:27:06;;;;;;;15.00;5.68;;;;;;;14.66;91.42;102124.56;7393675;19;19918;-72
2023/10/06 08:29:34;;;;;;;15.90;8.48;;;;;;;14.65;91.62;102131.84;7397384;19;19966;-72
2023/10/06 08:32:05;;;;;;;16.33;7.47;;;;;;;14.68;91.95;102128.78;7397729;19;19922;-72
2023/10/06 08:34:39;;;;;;;14.23;5.50;;;;;;;14.72;91.72;102137.41;7398592;19;19926;-72
2023/10/06 08:37:11;;;;;;;17.42;9.10;;;;;;;14.76;91.39;102144.16;7400384;19;19939;-72
2023/10/06 08:39:42;;;;;;;9.25;5.93;;;;;;;14.80;91.46;102149.06;7400681;19;19922;-72
2023/10/06 08:42:14;;;;;;;16.45;7.68;;;;;;;14.86;91.20;102137.53;7399563;19;20030;-72
2023/10/06 08:44:43;;;;;;;12.90;5.90;;;;;;;14.92;91.06;102141.44;7400338;19;19922;-72
2023/10/06 08:47:14;;;;;;;10.85;6.15;;;;;;;14.99;90.42;102137.00;7396154;19;19926;-71
2023/10/06 08:49:48;;;;;;;10.75;5.97;;;;;;;15.05;90.00;102132.75;7398025;19;20283;-72
2023/10/06 08:52:22;;;;;;;14.43;5.18;;;;;;;15.09;90.08;102134.94;7399810;19;20467;-72
2023/10/06 08:54:51;;;;;;;17.38;6.80;;;;;;;15.12;89.92;102107.44;7399053;19;19918;-72
2023/10/06 08:57:19;;;;;;;10.80;4.43;;;;;;;15.17;89.95;102113.19;7396230;19;20302;-72
2023/10/06 08:59:48;;;;;;;11.30;4.50;;;;;;;15.21;90.03;102092.78;7396281;19;19944;-72
2023/10/06 09:02:17;;;;;;;10.57;4.72;;;;;;;15.27;89.61;102102.09;7398647;19;19947;-72
2023/10/06 09:04:48;;;;;;;10.77;4.40;;;;;;;15.33;89.51;102091.38;7397966;19;19941;-72
2023/10/06 09:07:17;;;;;;;12.85;5.32;;;;;;;15.46;89.25;102093.50;7399078;19;19918;-70
2023/10/06 09:09:47;;;;;;;14.20;4.47;;;;;;;15.56;88.80;102093.31;7399356;19;19922;-72
2023/10/06 09:12:26;;;;;;;8.52;4.68;;;;;;;15.53;88.45;102097.22;7394844;19;19926;-72
2023/10/06 09:14:56;;;;;;;10.18;4.97;;;;;;;15.59;88.69;102096.50;7397699;19;20290;-72
2023/10/06 09:17:33;;;;;;;12.18;4.90;;;;;;;15.60;88.24;102110.94;7397178;19;20173;-72
2023/10/06 09:20:07;;;;;;;8.50;4.95;;;;;;;15.64;88.22;102109.53;7400120;19;19994;-72
2023/10/06 09:22:47;;;;;;;13.45;4.95;;;;;;;15.66;88.35;102111.03;7396631;19;19918;-72
2023/10/06 09:25:18;;;;;;;9.65;4.15;;;;;;;15.71;88.41;102111.34;7398366;19;19926;-72
2023/10/06 09:27:48;;;;;;;7.03;3.75;;;;;;;15.73;88.38;102103.88;7395633;19;20245;-71
2023/10/06 09:30:20;;;;;;;9.15;4.40;;;;;;;15.72;87.53;102128.50;7397479;19;19953;-72
2023/10/06 09:32:49;;;;;;;12.65;4.53;;;;;;;15.71;87.74;102107.78;7396288;19;19930;-72
2023/10/06 09:35:27;;;;;;;11.88;4.32;;;;;;;15.69;87.11;102097.13;7388089;19;20483;-73
2023/10/06 09:38:13;;;;;;;12.30;4.65;;;;;;;15.67;87.17;102096.44;7395236;19;19993;-72
2023/10/06 09:40:46;;;;;;;8.38;3.83;;;;;;;15.66;86.94;102094.75;7397059;19;19919;-72
2023/10/06 09:43:18;;;;;;;13.23;4.60;;;;;;;15.73;86.94;102081.28;7396620;19;19927;-72
2023/10/06 09:45:46;;;;;;;9.15;3.90;;;;;;;15.78;86.44;102078.88;7396269;19;19940;-72
2023/10/06 09:48:17;;;;;;;7.25;3.25;;;;;;;15.87;86.79;102075.94;7393848;19;19926;-72
2023/10/06 09:50:50;;;;;;;7.88;3.67;;;;;;;15.95;86.13;102098.63;7397334;19;19922;-72
2023/10/06 09:53:22;;;;;;;10.15;4.18;;;;;;;15.98;86.23;102088.22;7397705;19;19925;-70
2023/10/06 09:55:52;;;;;;;10.13;3.85;;;;;;;16.07;86.11;102094.44;7393554;19;19922;-70
2023/10/06 09:58:22;;;;;;;10.60;4.10;;;;;;;16.17;85.87;102095.88;7395071;19;19997;-70
2023/10/06 10:00:51;;;;;;;7.93;4.05;;;;;;;16.22;86.04;102104.31;7396581;19;19918;-70
2023/10/06 10:03:20;;;;;;;8.68;4.00;;;;;;;16.29;85.31;102099.84;7395006;19;19919;-69
2023/10/06 10:05:52;;;;;;;9.35;4.18;;;;;;;16.36;84.84;102116.25;7393191;19;19944;-70
2023/10/06 10:08:22;;;;;;;10.70;4.00;;;;;;;16.47;84.50;102104.09;7396848;19;19929;-70
2023/10/06 10:10:55;;;;;;;9.65;3.72;;;;;;;16.54;83.33;102105.88;7396123;19;19918;-70
2023/10/06 10:13:43;;;;;;;9.15;4.10;;;;;;;16.76;83.46;102094.09;7395286;19;19919;-66
2023/10/06 10:16:27;;;;;;;;;;;;;;;16.88;83.00;102091.75;7394925;19;20009;-65
2023/10/06 10:19:03;;;;;;;8.93;3.90;;;;;;;17.08;82.60;102101.03;7355914;19;19953;-66
2023/10/06 10:21:34;;;;;;;7.57;3.83;;;;;;;17.17;81.13;102082.72;7393073;19;19933;-66
2023/10/06 10:24:05;;;;;;;7.95;4.20;;;;;;;17.15;82.18;102061.09;7392398;19;19922;-67
2023/10/06 10:26:35;;;;;;;6.47;3.55;;;;;;;17.13;82.40;102060.44;7398966;19;19919;-67
2023/10/06 10:29:31;;;;;;;8.43;3.58;;;;;;;17.07;81.16;102096.63;7389470;19;19947;-68
2023/10/06 10:32:01;;;;;;;8.88;4.05;;;;;;;17.10;82.07;102071.72;7397987;19;19926;-68
2023/10/06 10:34:33;;;;;;;10.05;4.05;;;;;;;17.12;81.72;102066.09;7395043;19;19929;-66
2023/10/06 10:37:20;;;;;;;7.65;3.53;;;;;;;17.18;81.96;102074.34;7372096;19;19953;-66
2023/10/06 10:39:51;;;;;;;5.93;3.67;;;;;;;17.34;80.95;102070.56;7397505;19;19944;-66
2023/10/06 10:42:23;;;;;;;8.88;3.45;;;;;;;17.42;80.77;102065.00;7397883;19;19927;-67
2023/10/06 10:44:52;;;;;;;7.43;3.25;;;;;;;17.53;80.08;102071.78;7396469;19;19922;-68
2023/10/06 10:47:26;;;;;;;9.02;3.70;;;;;;;17.62;79.34;102076.13;7398326;19;20248;-66
2023/10/06 10:49:55;;;;;;;9.43;3.53;;;;;;;17.75;79.79;102057.19;7398178;19;19922;-66
2023/10/06 10:52:28;;;;;;;11.45;3.40;;;;;;;17.79;78.49;102085.72;7400155;19;20362;-71
2023/10/06 10:54:59;;;;;;;10.30;2.92;;;;;;;17.78;78.83;102069.56;7392151;19;19929;-65
2023/10/06 10:57:28;;;;;;;13.52;3.92;;;;;;;17.79;79.17;102063.06;7401312;19;19950;-65
2023/10/06 11:00:20;;;;;;;10.18;3.25;;;;;;;17.78;78.16;102064.94;7401776;19;19982;-65
2023/10/06 11:03:04;;;;;;;8.20;3.28;;;;;;;17.76;78.18;102063.47;7398317;19;19927;-65
2023/10/06 11:05:34;;;;;;;11.60;3.67;;;;;;;17.74;79.38;102055.47;7400117;19;20344;-65
2023/10/06 11:08:06;;;;;;;8.18;3.22;;;;;;;17.63;78.58;102053.28;7401102;19;19947;-65
2023/10/06 11:10:35;;;;;;;9.38;3.72;;;;;;;17.61;79.76;102071.69;7396632;19;19926;-64
2023/10/06 11:13:19;;;;;;;7.53;3.05;;;;;;;17.51;79.50;102046.63;7398963;19;19975;-65
2023/10/06 11:15:49;;;;;;;7.93;3.33;;;;;;;17.55;80.33;102031.59;7394940;19;19930;-66
2023/10/06 11:18:20;;;;;;;8.85;3.30;;;;;;;17.58;79.98;102039.41;7398077;19;19915;-66
2023/10/06 11:20:49;;;;;;;10.23;3.92;;;;;;;17.57;80.38;102026.78;7400888;19;19959;-65
2023/10/06 11:23:23;;;;;;;7.95;3.38;;;;;;;17.63;80.01;102023.31;7389164;19;19940;-65
2023/10/06 11:25:53;;;;;;;8.35;3.53;;;;;;;17.83;79.66;102023.47;7392320;19;19933;-66
2023/10/06 11:28:22;;;;;;;6.88;3.50;;;;;;;18.01;79.23;102004.75;7392053;19;19931;-67
2023/10/06 11:30:50;;;;;;;8.55;3.67;;;;;;;18.25;78.42;102012.47;7397536;19;19956;-66
2023/10/06 11:33:22;;;;;;;9.27;2.95;;;;;;;18.52;78.17;102024.41;7399084;19;19915;-66
2023/10/06 11:35:57;;;;;;;8.13;3.10;;;;;;;18.63;77.51;102017.56;7397996;19;19933;-66
2023/10/06 11:38:29;;;;;;;10.00;2.85;;;;;;;18.72;77.06;102011.75;7396027;19;20023;-65
2023/10/06 11:40:58;;;;;;;10.35;2.80;;;;;;;18.76;77.30;102034.88;7397128;19;19948;-64
2023/10/06 11:43:37;;;;;;;10.52;2.60;;;;;;;18.90;77.19;102012.03;7400695;19;19935;-65
2023/10/06 11:46:07;;;;;;;10.57;2.80;;;;;;;19.06;76.92;102021.75;7401416;19;19922;-65